createdAt,value
2022-12-16T00:00:05.832Z,0.68
2022-12-16T00:02:33.056Z,0.74
2022-12-16T00:04:59.627Z,0.69
2022-12-16T00:07:26.167Z,0.60
2022-12-16T00:09:52.626Z,0.54
2022-12-16T00:12:19.245Z,0.54
2022-12-16T00:14:45.765Z,0.60
2022-12-16T00:17:12.328Z,0.60
2022-12-16T00:19:38.865Z,0.65
2022-12-16T00:22:05.587Z,0.40
2022-12-16T00:24:32.076Z,0.47
2022-12-16T00:26:58.609Z,0.53
2022-12-16T00:29:25.152Z,0.33
2022-12-16T00:31:51.693Z,0.33
2022-12-16T00:34:19.260Z,0.37
2022-12-16T00:36:45.807Z,0.27
2022-12-16T00:39:12.392Z,0.40
2022-12-16T00:41:38.900Z,0.32
2022-12-16T00:44:05.499Z,0.30
2022-12-16T00:46:32.097Z,0.33
2022-12-16T00:48:58.650Z,0.34
2022-12-16T00:51:25.198Z,0.34
2022-12-16T00:53:51.815Z,0.32
2022-12-16T00:56:18.646Z,0.31
2022-12-16T00:58:45.107Z,0.28
2022-12-16T01:01:12.225Z,0.21
2022-12-16T01:03:39.483Z,0.15
2022-12-16T01:06:15.873Z,0.13
2022-12-16T01:08:49.297Z,0.23
2022-12-16T01:11:17.261Z,0.21
2022-12-16T01:13:44.563Z,0.30
2022-12-16T01:16:11.267Z,0.34
2022-12-16T01:18:38.066Z,0.33
2022-12-16T01:21:06.707Z,0.42
2022-12-16T01:23:34.192Z,0.41
2022-12-16T01:26:02.037Z,0.45
2022-12-16T01:28:29.206Z,0.51
2022-12-16T01:31:01.734Z,0.59
2022-12-16T01:33:30.549Z,0.59
2022-12-16T01:36:03.470Z,0.57
2022-12-16T01:38:30.141Z,0.52
2022-12-16T01:40:56.928Z,0.44
2022-12-16T01:43:29.708Z,0.22
2022-12-16T01:46:12.117Z,0.20
2022-12-16T01:48:51.055Z,-0.07
2022-12-16T01:51:32.530Z,-0.48
2022-12-16T01:54:05.740Z,-0.03
2022-12-16T01:56:34.833Z,-0.05
2022-12-16T01:59:02.869Z,-0.04
2022-12-16T02:01:29.879Z,-0.19
2022-12-16T02:04:01.723Z,-0.11
2022-12-16T02:06:29.655Z,-0.02
2022-12-16T02:08:58.496Z,0.01
2022-12-16T02:11:43.619Z,0.01
2022-12-16T02:14:29.498Z,-0.03
2022-12-16T02:17:16.732Z,-0.21
2022-12-16T02:19:58.431Z,-0.07
2022-12-16T02:22:40.711Z,-0.13
2022-12-16T02:25:38.065Z,-0.24
2022-12-16T02:28:13.054Z,-0.50
2022-12-16T02:31:27.255Z,-0.44
2022-12-16T02:34:10.300Z,-0.42
2022-12-16T02:36:57.283Z,-0.39
2022-12-16T02:39:37.073Z,-0.27
2022-12-16T02:42:06.409Z,-0.24
2022-12-16T02:44:47.407Z,-0.18
2022-12-16T02:47:14.211Z,-0.26
2022-12-16T02:49:47.663Z,-0.24
2022-12-16T02:52:15.443Z,-0.34
2022-12-16T02:54:43.060Z,-0.31
2022-12-16T02:57:37.546Z,-0.26
2022-12-16T03:00:08.432Z,-0.34
2022-12-16T03:03:08.705Z,-0.40
2022-12-16T03:05:48.882Z,-0.37
2022-12-16T03:08:29.988Z,-0.31
2022-12-16T03:11:04.032Z,-0.27
2022-12-16T03:13:44.797Z,-0.30
2022-12-16T03:16:14.464Z,-0.38
2022-12-16T03:18:46.270Z,-0.49
2022-12-16T03:21:14.604Z,-0.52
2022-12-16T03:23:47.495Z,-0.50
2022-12-16T03:26:21.640Z,-0.50
2022-12-16T03:28:58.886Z,-0.49
2022-12-16T03:31:47.225Z,-0.52
2022-12-16T03:34:25.304Z,-0.48
2022-12-16T03:36:59.941Z,-0.49
2022-12-16T03:39:27.450Z,-0.50
2022-12-16T03:41:55.878Z,-0.31
2022-12-16T03:44:25.212Z,-0.25
2022-12-16T03:46:52.528Z,-0.23
2022-12-16T03:49:19.123Z,-0.37
2022-12-16T03:51:45.607Z,-0.27
2022-12-16T03:54:12.090Z,-0.42
2022-12-16T03:56:38.681Z,-0.46
2022-12-16T03:59:05.186Z,-0.50
2022-12-16T04:01:31.897Z,-0.56
2022-12-16T04:03:58.513Z,-0.64
2022-12-16T04:06:25.109Z,-0.51
2022-12-16T04:08:51.648Z,-0.45
2022-12-16T04:11:36.492Z,-0.40
2022-12-16T04:14:21.286Z,-0.42
2022-12-16T04:17:07.255Z,-0.46
2022-12-16T04:19:55.320Z,-0.38
2022-12-16T04:22:55.040Z,-0.47
2022-12-16T04:25:28.963Z,-0.24
2022-12-16T04:27:55.497Z,-0.21
2022-12-16T04:30:22.144Z,-0.26
2022-12-16T04:33:31.453Z,-0.40
2022-12-16T04:36:16.736Z,-0.47
2022-12-16T04:39:01.643Z,-0.61
2022-12-16T04:41:46.768Z,-0.42
2022-12-16T04:44:32.386Z,-0.36
2022-12-16T04:47:17.893Z,-0.19
2022-12-16T04:50:03.040Z,-0.08
2022-12-16T04:52:48.106Z,0.01
2022-12-16T04:55:33.287Z,-0.15
2022-12-16T04:58:21.092Z,-0.24
2022-12-16T05:01:06.942Z,-0.31
2022-12-16T05:03:53.193Z,-0.32
2022-12-16T05:06:39.068Z,-0.24
2022-12-16T05:09:24.564Z,-0.09
2022-12-16T05:12:09.755Z,-0.03
2022-12-16T05:14:55.009Z,-0.06
2022-12-16T05:17:40.518Z,0.03
2022-12-16T05:20:26.485Z,0.01
2022-12-16T05:23:14.777Z,0.04
2022-12-16T05:26:00.110Z,0.04
2022-12-16T05:28:45.320Z,0.06
2022-12-16T05:31:30.254Z,-0.42
2022-12-16T05:34:15.556Z,-0.07
2022-12-16T05:37:00.375Z,-0.22
2022-12-16T05:39:45.310Z,-0.54
2022-12-16T05:42:30.643Z,-0.04
2022-12-16T05:45:15.786Z,-0.06
2022-12-16T05:48:00.836Z,-0.03
2022-12-16T05:50:45.766Z,-0.50
2022-12-16T05:53:31.633Z,-0.06
2022-12-16T05:56:17.159Z,-0.11
2022-12-16T05:59:02.175Z,-0.16
2022-12-16T06:01:47.785Z,-0.21
2022-12-16T06:04:32.989Z,-0.20
2022-12-16T06:07:18.231Z,-0.10
2022-12-16T06:10:03.159Z,0.02
2022-12-16T06:12:48.711Z,0.03
2022-12-16T06:15:34.083Z,0.07
2022-12-16T06:18:19.137Z,0.06
2022-12-16T06:21:04.147Z,0.06
2022-12-16T06:23:49.338Z,0.04
2022-12-16T06:26:35.011Z,-0.06
2022-12-16T06:29:19.947Z,0.04
2022-12-16T06:32:05.109Z,0.06
2022-12-16T06:34:50.404Z,0.08
2022-12-16T06:37:35.391Z,0.02
2022-12-16T06:40:21.024Z,0.02
2022-12-16T06:43:06.435Z,0.06
2022-12-16T06:45:51.671Z,0.05
2022-12-16T06:48:36.925Z,0.07
2022-12-16T06:51:22.169Z,0.00
2022-12-16T06:54:07.390Z,0.10
2022-12-16T06:56:52.271Z,0.13
2022-12-16T06:59:37.361Z,0.09
2022-12-16T07:02:22.310Z,0.05
2022-12-16T07:05:07.683Z,0.13
2022-12-16T07:07:52.574Z,0.07
2022-12-16T07:10:37.915Z,0.14
2022-12-16T07:13:22.680Z,0.17
2022-12-16T07:16:07.711Z,0.05
2022-12-16T07:18:52.963Z,0.14
2022-12-16T07:21:37.851Z,0.14
2022-12-16T07:24:23.284Z,0.17
2022-12-16T07:27:08.347Z,0.13
2022-12-16T07:29:53.839Z,0.10
2022-12-16T07:32:38.819Z,-0.08
2022-12-16T07:35:24.032Z,0.13
2022-12-16T07:38:09.614Z,0.01
2022-12-16T07:40:54.767Z,0.17
2022-12-16T07:43:40.926Z,0.15
2022-12-16T07:46:25.790Z,0.23
2022-12-16T07:49:18.433Z,0.18
2022-12-16T07:52:03.920Z,0.19
2022-12-16T07:54:49.108Z,0.03
2022-12-16T07:57:34.332Z,0.20
2022-12-16T08:00:19.423Z,0.30
2022-12-16T08:03:04.602Z,0.32
2022-12-16T08:05:49.830Z,-0.10
2022-12-16T08:08:34.592Z,0.07
2022-12-16T08:11:19.875Z,0.21
2022-12-16T08:14:04.752Z,0.25
2022-12-16T08:16:49.799Z,0.30
2022-12-16T08:19:35.128Z,0.42
2022-12-16T08:22:20.071Z,0.27
2022-12-16T08:25:04.959Z,0.43
2022-12-16T08:27:50.025Z,0.51
2022-12-16T08:30:35.406Z,0.59
2022-12-16T08:33:20.631Z,0.52
2022-12-16T08:36:06.727Z,0.64
2022-12-16T08:38:52.012Z,0.68
2022-12-16T08:41:38.348Z,0.64
2022-12-16T08:44:23.823Z,0.59
2022-12-16T08:47:08.911Z,0.74
2022-12-16T08:49:57.681Z,0.58
2022-12-16T08:52:46.876Z,0.70
2022-12-16T08:55:32.199Z,0.73
2022-12-16T08:58:17.417Z,0.73
2022-12-16T09:01:06.977Z,0.55
2022-12-16T09:03:52.964Z,0.69
2022-12-16T09:06:40.635Z,0.59
2022-12-16T09:09:26.666Z,0.64
2022-12-16T09:12:11.533Z,0.62
2022-12-16T09:14:56.742Z,0.72
2022-12-16T09:17:42.040Z,0.77
2022-12-16T09:20:27.628Z,0.90
2022-12-16T09:23:12.903Z,0.91
2022-12-16T09:25:58.270Z,0.89
2022-12-16T09:28:43.447Z,0.92
2022-12-16T09:31:28.869Z,0.86
2022-12-16T09:34:14.096Z,0.92
2022-12-16T09:36:59.408Z,1.00
2022-12-16T09:39:44.560Z,0.72
2022-12-16T09:42:46.888Z,0.76
2022-12-16T09:45:50.974Z,0.92
2022-12-16T09:48:49.220Z,1.00
2022-12-16T09:51:35.811Z,0.96
2022-12-16T09:54:22.208Z,0.92
2022-12-16T09:57:07.589Z,0.95
2022-12-16T09:59:57.257Z,0.87
2022-12-16T10:02:44.143Z,0.88
2022-12-16T10:06:19.024Z,0.86
2022-12-16T10:09:14.138Z,0.89
2022-12-16T10:12:39.617Z,0.65
2022-12-16T10:15:50.008Z,0.84
2022-12-16T10:18:49.881Z,0.86
2022-12-16T10:21:42.435Z,0.76
2022-12-16T10:24:37.106Z,0.81
2022-12-16T10:27:33.472Z,0.83
2022-12-16T10:30:20.010Z,0.84
2022-12-16T10:33:07.714Z,0.92
2022-12-16T10:35:57.585Z,1.00
2022-12-16T10:38:53.667Z,1.04
2022-12-16T10:41:41.371Z,1.08
2022-12-16T10:45:13.136Z,1.12
2022-12-16T10:47:58.829Z,1.07
2022-12-16T10:50:44.134Z,1.16
2022-12-16T10:53:39.212Z,1.14
2022-12-16T10:56:45.086Z,1.15
2022-12-16T10:59:30.765Z,1.22
2022-12-16T11:02:21.770Z,1.21
2022-12-16T11:05:08.032Z,1.18
2022-12-16T11:08:02.942Z,1.17
2022-12-16T11:10:58.820Z,1.21
2022-12-16T11:13:55.396Z,1.38
2022-12-16T11:16:46.209Z,1.42
2022-12-16T11:19:40.398Z,1.30
2022-12-16T11:22:38.398Z,1.24
2022-12-16T11:25:29.386Z,1.22
2022-12-16T11:28:26.642Z,1.18
2022-12-16T11:31:13.791Z,1.16
2022-12-16T11:33:59.321Z,0.83
2022-12-16T11:36:45.677Z,1.21
2022-12-16T11:39:34.807Z,1.12
2022-12-16T11:42:20.847Z,1.09
2022-12-16T11:45:12.216Z,1.10
2022-12-16T11:48:14.958Z,1.13
2022-12-16T11:51:11.871Z,1.19
2022-12-16T11:54:06.727Z,1.20
2022-12-16T11:56:56.143Z,1.16
2022-12-16T11:59:44.231Z,1.19
2022-12-16T12:03:02.075Z,1.36
2022-12-16T12:06:17.917Z,1.30
2022-12-16T12:09:10.075Z,1.38
2022-12-16T12:12:10.002Z,1.37
2022-12-16T12:15:15.599Z,1.41
2022-12-16T12:18:13.806Z,1.30
2022-12-16T12:21:12.019Z,1.12
2022-12-16T12:24:15.103Z,1.14
2022-12-16T12:27:09.316Z,1.18
2022-12-16T12:30:03.811Z,1.21
2022-12-16T12:33:01.510Z,1.20
2022-12-16T12:36:38.448Z,1.29
2022-12-16T12:39:42.755Z,1.29
2022-12-16T12:42:54.966Z,1.30
2022-12-16T12:46:00.682Z,1.36
2022-12-16T12:49:07.963Z,1.34
2022-12-16T12:52:10.578Z,1.25
2022-12-16T12:55:04.503Z,1.13
2022-12-16T12:57:53.492Z,1.04
2022-12-16T13:00:42.818Z,1.16
2022-12-16T13:03:37.799Z,1.10
2022-12-16T13:06:23.902Z,1.19
2022-12-16T13:09:09.301Z,1.24
2022-12-16T13:11:55.965Z,1.21
2022-12-16T13:14:50.428Z,1.22
2022-12-16T13:17:37.718Z,1.28
2022-12-16T13:20:47.064Z,1.29
2022-12-16T13:23:51.356Z,1.08
2022-12-16T13:26:38.622Z,1.19
2022-12-16T13:29:30.089Z,1.14
2022-12-16T13:32:21.454Z,1.18
2022-12-16T13:35:18.280Z,1.13
2022-12-16T13:38:17.832Z,1.09
2022-12-16T13:41:12.052Z,1.11
2022-12-16T13:44:03.089Z,1.08
2022-12-16T13:47:06.314Z,1.04
2022-12-16T13:49:54.273Z,1.10
2022-12-16T13:53:05.306Z,1.07
2022-12-16T13:56:15.967Z,0.99
2022-12-16T13:59:06.288Z,0.89
2022-12-16T14:02:11.343Z,0.95
2022-12-16T14:05:02.484Z,0.89
2022-12-16T14:07:51.112Z,0.85
2022-12-16T14:10:45.151Z,0.71
2022-12-16T14:13:42.324Z,0.82
2022-12-16T14:16:39.507Z,0.69
2022-12-16T14:19:44.438Z,0.51
2022-12-16T14:22:54.179Z,0.62
2022-12-16T14:25:40.884Z,0.65
2022-12-16T14:28:51.856Z,0.60
2022-12-16T14:31:41.350Z,0.57
2022-12-16T14:34:41.654Z,0.08
2022-12-16T14:37:38.561Z,0.14
2022-12-16T14:40:38.750Z,0.44
2022-12-16T14:43:32.055Z,0.43
2022-12-16T14:46:17.806Z,0.32
2022-12-16T14:49:07.099Z,0.39
2022-12-16T14:51:57.236Z,0.22
2022-12-16T14:54:45.316Z,0.35
2022-12-16T14:57:37.011Z,0.13
2022-12-16T15:00:28.353Z,-0.11
2022-12-16T15:03:36.799Z,0.06
2022-12-16T15:06:25.545Z,-0.05
2022-12-16T15:09:16.654Z,-0.02
2022-12-16T15:12:03.134Z,-0.04
2022-12-16T15:14:51.034Z,-0.07
2022-12-16T15:17:42.867Z,-0.13
2022-12-16T15:20:43.798Z,-0.02
2022-12-16T15:23:42.797Z,-0.05
2022-12-16T15:26:35.242Z,-0.13
2022-12-16T15:29:20.698Z,-0.06
2022-12-16T15:32:05.661Z,-0.01
2022-12-16T15:35:04.232Z,-0.03
2022-12-16T15:38:06.576Z,0.00
2022-12-16T15:40:53.066Z,0.04
2022-12-16T15:43:53.650Z,0.07
2022-12-16T15:47:03.871Z,0.15
2022-12-16T15:49:59.339Z,0.05
2022-12-16T15:52:48.875Z,0.14
2022-12-16T15:55:41.611Z,0.14
2022-12-16T15:58:40.306Z,0.13
2022-12-16T16:01:26.708Z,-0.04
2022-12-16T16:04:14.423Z,-0.05
2022-12-16T16:07:10.907Z,-0.03
2022-12-16T16:09:57.891Z,-0.07
2022-12-16T16:12:44.180Z,-0.10
2022-12-16T16:15:32.454Z,-0.09
2022-12-16T16:21:26.426Z,0.05
2022-12-16T16:24:11.434Z,-0.07
2022-12-16T16:26:56.341Z,-0.05
2022-12-16T16:29:41.607Z,0.05
2022-12-16T16:32:27.799Z,0.03
2022-12-16T16:35:13.106Z,-0.04
2022-12-16T16:37:58.571Z,-0.09
2022-12-16T16:40:51.659Z,-0.18
2022-12-16T16:43:37.018Z,-0.11
2022-12-16T16:46:33.489Z,-0.10
2022-12-16T16:49:18.824Z,-0.05
2022-12-16T16:52:04.069Z,-0.10
2022-12-16T16:54:48.895Z,-0.33
2022-12-16T16:57:34.397Z,-0.20
2022-12-16T17:00:19.537Z,-0.33
2022-12-16T17:03:04.995Z,-0.07
2022-12-16T17:05:50.356Z,-0.09
2022-12-16T17:08:35.181Z,-0.10
2022-12-16T17:11:20.817Z,-0.14
2022-12-16T17:14:05.953Z,-0.05
2022-12-16T17:16:51.162Z,-0.08
2022-12-16T17:19:36.620Z,-0.06
2022-12-16T17:22:21.903Z,-0.06
2022-12-16T17:25:06.949Z,-0.11
2022-12-16T17:27:52.121Z,-0.15
2022-12-16T17:30:46.485Z,-0.18
2022-12-16T17:33:33.854Z,-0.41
2022-12-16T17:36:19.883Z,-0.54
2022-12-16T17:39:05.228Z,-0.29
2022-12-16T17:41:52.271Z,-0.25
2022-12-16T17:44:37.958Z,-0.28
2022-12-16T17:47:23.296Z,-0.24
2022-12-16T17:50:08.396Z,-0.22
2022-12-16T17:52:53.568Z,-0.22
2022-12-16T17:55:38.782Z,-0.34
2022-12-16T17:58:23.686Z,-0.29
2022-12-16T18:01:08.680Z,-0.31
2022-12-16T18:03:54.196Z,-0.31
2022-12-16T18:06:39.425Z,-0.34
2022-12-16T18:09:24.696Z,-0.32
2022-12-16T18:12:09.774Z,-0.31
2022-12-16T18:14:56.787Z,-0.33
2022-12-16T18:17:41.720Z,-0.46
2022-12-16T18:20:27.507Z,-0.48
2022-12-16T18:23:13.184Z,-0.47
2022-12-16T18:25:58.475Z,-0.53
2022-12-16T18:28:43.461Z,-0.51
2022-12-16T18:31:29.065Z,-0.41
2022-12-16T18:34:14.402Z,-0.42
2022-12-16T18:36:59.844Z,-0.37
2022-12-16T18:39:44.727Z,-0.42
2022-12-16T18:42:31.174Z,-0.50
2022-12-16T18:45:16.004Z,-0.50
2022-12-16T18:48:00.963Z,-0.49
2022-12-16T18:50:53.717Z,-0.45
2022-12-16T18:53:41.792Z,-0.39
2022-12-16T18:56:28.571Z,-0.38
2022-12-16T18:59:14.335Z,-0.41
2022-12-16T19:01:59.675Z,-0.44
2022-12-16T19:04:44.874Z,-0.48
2022-12-16T19:07:33.628Z,-0.62
2022-12-16T19:10:19.235Z,-0.48
2022-12-16T19:13:04.030Z,-0.48
2022-12-16T19:15:49.201Z,-0.50
2022-12-16T19:18:34.466Z,-0.57
2022-12-16T19:21:19.835Z,-0.49
2022-12-16T19:24:07.690Z,-0.49
2022-12-16T19:26:52.992Z,-0.63
2022-12-16T19:29:41.888Z,-0.57
2022-12-16T19:32:26.870Z,-0.62
2022-12-16T19:35:12.038Z,-0.53
2022-12-16T19:37:57.328Z,-0.54
2022-12-16T19:40:42.575Z,-0.60
2022-12-16T19:43:27.678Z,-0.57
2022-12-16T19:46:13.943Z,-0.78
2022-12-16T19:48:59.115Z,-0.68
2022-12-16T19:51:44.458Z,-0.73
2022-12-16T19:54:29.411Z,-0.62
2022-12-16T19:57:14.281Z,-0.58
2022-12-16T19:59:59.036Z,-0.60
2022-12-16T20:05:52.714Z,-0.58
2022-12-16T20:08:38.550Z,-0.61
2022-12-16T20:11:27.907Z,-0.62
2022-12-16T20:14:14.844Z,-0.57
2022-12-16T20:17:01.326Z,-0.56
2022-12-16T20:19:46.260Z,-0.58
2022-12-16T20:22:31.267Z,-0.58
2022-12-16T20:25:16.636Z,-0.66
2022-12-16T20:28:01.590Z,-0.63
2022-12-16T20:30:46.809Z,-0.69
2022-12-16T20:33:33.676Z,-0.72
2022-12-16T20:36:21.318Z,-0.66
2022-12-16T20:39:06.527Z,-0.68
2022-12-16T20:41:51.754Z,-0.68
2022-12-16T20:44:36.880Z,-0.71
2022-12-16T20:47:22.018Z,-1.33
2022-12-16T20:50:07.191Z,-0.75
2022-12-16T20:52:52.028Z,-1.05
2022-12-16T20:55:37.008Z,-0.85
2022-12-16T20:58:22.340Z,-0.79
2022-12-16T21:01:14.960Z,-0.79
2022-12-16T21:03:59.951Z,-0.78
2022-12-16T21:06:44.885Z,-0.76
2022-12-16T21:09:29.907Z,-0.87
2022-12-16T21:12:15.317Z,-0.89
2022-12-16T21:15:00.369Z,-0.94
2022-12-16T21:17:45.303Z,-1.00
2022-12-16T21:20:30.927Z,-0.92
2022-12-16T21:23:18.286Z,-1.00
2022-12-16T21:26:03.517Z,-0.93
2022-12-16T21:28:48.679Z,-0.98
2022-12-16T21:31:34.026Z,-1.01
2022-12-16T21:34:18.976Z,-1.04
2022-12-16T21:37:04.038Z,-1.23
2022-12-16T21:39:49.337Z,-1.04
2022-12-16T21:42:36.736Z,-0.99
2022-12-16T21:45:24.106Z,-1.06
2022-12-16T21:48:12.935Z,-1.10
2022-12-16T21:50:58.093Z,-0.93
2022-12-16T21:53:57.186Z,-0.95
2022-12-16T21:56:42.432Z,-0.94
2022-12-16T21:59:27.515Z,-0.95
2022-12-16T22:02:12.708Z,-1.00
2022-12-16T22:04:57.848Z,-0.99
2022-12-16T22:07:45.466Z,-0.99
2022-12-16T22:10:31.113Z,-1.08
2022-12-16T22:13:18.563Z,-1.02
2022-12-16T22:16:16.468Z,-1.02
2022-12-16T22:19:18.552Z,-1.08
2022-12-16T22:22:05.872Z,-1.02
2022-12-16T22:24:51.284Z,-1.00
2022-12-16T22:27:38.960Z,-1.27
2022-12-16T22:30:24.922Z,-1.04
2022-12-16T22:33:10.152Z,-1.05
2022-12-16T22:35:55.011Z,-1.09
2022-12-16T22:38:40.454Z,-1.14
2022-12-16T22:41:25.633Z,-1.11
2022-12-16T22:44:10.421Z,-1.10
2022-12-16T22:46:56.153Z,-1.05
2022-12-16T22:49:41.493Z,-1.10
2022-12-16T22:52:26.680Z,-1.06
2022-12-16T22:55:11.494Z,-1.08
2022-12-16T22:57:56.632Z,-1.09
2022-12-16T23:00:58.268Z,-1.14
2022-12-16T23:03:44.275Z,-1.12
2022-12-16T23:06:29.989Z,-1.02
2022-12-16T23:09:15.420Z,-1.05
2022-12-16T23:12:00.904Z,-1.08
2022-12-16T23:14:46.340Z,-1.14
2022-12-16T23:17:32.015Z,-1.12
2022-12-16T23:20:17.202Z,-1.15
2022-12-16T23:23:02.158Z,-1.16
2022-12-16T23:25:47.661Z,-1.14
2022-12-16T23:28:32.915Z,-1.09
2022-12-16T23:31:18.241Z,-1.08
2022-12-16T23:34:03.362Z,-1.11
2022-12-16T23:36:48.322Z,-1.13
2022-12-16T23:39:33.595Z,-1.16
2022-12-16T23:42:18.562Z,-1.07
2022-12-16T23:45:03.765Z,-1.06
2022-12-16T23:47:48.924Z,-1.15
2022-12-16T23:50:34.150Z,-1.17
2022-12-16T23:53:27.128Z,-1.19
2022-12-16T23:56:18.139Z,-1.24
2022-12-16T23:59:03.493Z,-1.23
